Flight Track Log - Related Links

Times and Time Zones

All times are in EDT time to prevent confusion due to time zone crossing. See the RPA3220 flight status page for this flight to view local times or setup timezone preferences in your user account.

Time Position Orientation Groundspeed Altitude Reporting Facility
EDT Latitude Longitude Course Direction KTS MPH feet Rate Location/Type
Fri 03:09:00 PM 38.8333 -77.0333 57° Northeast 151 174 1,200  Level Potomac TRACON
Fri 03:10:01 PM 38.7833 -77.0167 165° South 199 229 2,800 1,878 Climbing Potomac TRACON
Fri 03:10:55 PM 38.7833 -76.9667 90° East 240 276 4,800 2,300 Climbing Potomac TRACON
Fri 03:11:00 PM 39.0037 -76.5926 57° Northeast  Level FlightAware Approximate
Fri 03:12:00 PM 39.0471 -76.4822 63° Northeast  Level FlightAware Approximate
Fri 03:12:01 PM 38.8333 -76.8833 52° Northeast 269 310 7,400  Level Potomac TRACON
Fri 03:12:44 PM 38.8528 -76.8206 68° East 290 334 9,000 2,495 Climbing Washington Center
Fri 03:13:00 PM 39.0926 -76.3729 61° Northeast  Level FlightAware Approximate
Fri 03:13:42 PM 38.8975 -76.7306 57° Northeast 297 342 11,600  Level Washington Center
Fri 03:14:00 PM 39.1208 -76.2584 57° Northeast  Level FlightAware Approximate
Fri 03:14:43 PM 38.9464 -76.6353 57° Northeast 302 348 14,100  Level Washington Center
Fri 03:15:44 PM 38.9950 -76.5369 58° Northeast 313 360 16,500 2,168 Climbing Washington Center
Fri 03:16:42 PM 39.0481 -76.4336 57° Northeast 320 368 18,400 1,678 Climbing Washington Center
Fri 03:17:42 PM 39.1050 -76.3192 57° Northeast 350 403 19,800 1,686 Climbing Washington Center
Fri 03:18:43 PM 39.1536 -76.1964 63° Northeast 371 427 21,800 1,574 Climbing Washington Center
Fri 03:19:44 PM 39.1750 -76.0547 79° East 387 445 23,000 900 Climbing Washington Center
Fri 03:20:43 PM 39.1922 -75.9022 82° East 400 460 23,600 1,311 Climbing Washington Center
Fri 03:21:43 PM 39.2592 -75.7925 52° Northeast 392 451 25,600 1,650 Climbing Washington Center
Fri 03:22:43 PM 39.3406 -75.6881 45° Northeast 386 444 26,900 694 Climbing Washington Center
Fri 03:23:44 PM 39.4219 -75.5861 44° Northeast 398 458 27,000 34 Climbing Washington Center
Fri 03:25:42 PM 39.5728 -75.3925 45° Northeast 393 452 27,000  Level New York Center
Fri 03:26:42 PM 39.6453 -75.2947 46° Northeast 380 437 27,000  Level New York Center
Fri 03:27:43 PM 39.7158 -75.1942 48° Northeast 374 430 27,000  Level New York Center
Fri 03:28:44 PM 39.7886 -75.0881 48° Northeast 379 436 27,000  Level New York Center
Fri 03:29:42 PM 39.8567 -74.9922 47° Northeast 372 428 27,000  Level New York Center
Fri 03:30:43 PM 39.9269 -74.8908 48° Northeast 372 428 27,000  Level New York Center
Fri 03:31:43 PM 39.9883 -74.8022 48° Northeast 372 428 27,000  Level New York Center
Fri 03:32:43 PM 40.0611 -74.6817 52° Northeast 378 435 27,000 -303 Level New York Center
Fri 03:33:42 PM 40.1144 -74.5817 55° Northeast 378 435 26,400 -958 Descending New York Center
Fri 03:34:42 PM 40.1831 -74.4578 54° Northeast 373 429 25,100 -992 Descending New York Center
Fri 03:35:43 PM 40.2342 -74.3597 56° Northeast 373 429 24,400 -590 Descending New York Center
Fri 03:36:44 PM 40.2914 -74.2539 55° Northeast 367 422 23,900 -555 Descending New York Center
Fri 03:37:42 PM 40.3489 -74.1453 55° Northeast 367 422 23,300 -524 Descending New York Center
Fri 03:40:10 PM 40.4756 -73.9078 55° Northeast 366 421 22,100 -545 Descending Boston Center
Fri 03:41:11 PM 40.5439 -73.7836 54° Northeast 353 406 21,400 -545 Descending Boston Center
Fri 03:42:11 PM 40.5886 -73.7000 55° Northeast 348 400 21,000 -545 Descending Boston Center
Fri 03:43:12 PM 40.6567 -73.5589 58° Northeast 348 400 20,300 -595 Descending Boston Center
Fri 03:44:12 PM 40.7100 -73.4531 56° Northeast 348 400 19,800 -508 Descending Boston Center
Fri 03:45:10 PM 40.7650 -73.3472 56° Northeast 348 400 19,300 -415 Descending Boston Center
Fri 03:46:22 PM 40.8261 -73.2656 45° Northeast 348 400 18,900 -1,083 Descending Boston Center
Fri 03:47:23 PM 40.9122 -73.1706 40° Northeast 334 384 16,900 -1,426 Descending Boston Center
Fri 03:48:24 PM 40.9794 -73.0889 43° Northeast 334 384 16,000 -793 Descending Boston Center
Fri 03:49:24 PM 41.0486 -73.0069 42° Northeast 328 377 15,300 -1,140 Descending Boston Center
Fri 03:50:25 PM 41.1136 -72.9306 42° Northeast 323 372 13,700 -1,613 Descending Boston Center
Fri 03:51:23 PM 41.1783 -72.8539 42° Northeast 311 358 12,100 -1,409 Descending Boston Center
Fri 03:52:20 PM 41.2453 -72.7742 42° Northeast 297 342 11,000 -564 Descending Boston Center
Fri 03:53:20 PM 41.3100 -72.7219 31° Northeast 289 333 11,000 -446 Level Boston Center
Fri 03:54:21 PM 41.3850 -72.7556 341° North 292 336 10,100 -1,091 Descending Boston Center
Fri 03:55:21 PM 41.4494 -72.8083 328° Northwest 269 310 8,800 -992 Descending Boston Center
Fri 03:56:22 PM 41.5181 -72.8669 327° Northwest 278 320 8,100 -595 Descending Boston Center
Fri 03:57:22 PM 41.5761 -72.9147 328° Northwest 224 258 7,600 -942 Descending Boston Center
Fri 03:58:23 PM 41.6364 -72.9372 344° North 218 251 6,200 -1,218 Descending Boston Center
Fri 03:59:35 PM 41.7031 -72.9572 347° North 225 259 4,900 -1,016 Descending Boston Center
Fri 04:00:27 PM 41.7511 -72.9269 25° Northeast 209 241 4,100 -850 Descending Boston Center
Fri 04:01:28 PM 41.7994 -72.8744 39° Northeast 236 272 3,300 -787 Descending Boston Center

Login

Don't have an account? Register now (free) for customized features, flight alerts, and more!